Alford, Massachusetts
Current Conditions -  °F | °C
As of 11:39 AM on Friday 21 Nov 2014 (Local Time) from KPSF Reporting Station
Light Snow Light Snow  
Wind Chill: 11°   Ceiling: 2300
Heat Index: 25°   Visibility: 1.7mi
Dew Point: 17°   Wind: 20mph
Humidity: 72%   Direction: 290°WNW
Pressure: 30.13"   Gusts: 31mph
Location:  42.1779°N, 73.3332°W
Report Text: KPSF 211639Z AUTO 29017G27KT 1 3/4SM -SN OVC023 M04/M08 A3013 RMK AO2 PK WND 28029/1620 P0000 T10391083
Loading
Personal Weather Stations






























Interactive Weather Map New forecast layout! Learn more

10-Day Weather Forecast

Advertisements
Track Severe Weather on mobile